sensor_id;sensor_type;location;lat;lon;timestamp;P1;durP1;ratioP1;P2;durP2;ratioP2
66721;SDS011;53633;49.932;10.884;2023-03-23T00:01:19;3.15;;;0.80;;
66721;SDS011;53633;49.932;10.884;2023-03-23T00:03:46;3.95;;;0.88;;
66721;SDS011;53633;49.932;10.884;2023-03-23T00:06:13;3.35;;;0.80;;
66721;SDS011;53633;49.932;10.884;2023-03-23T00:08:39;2.45;;;0.70;;
66721;SDS011;53633;49.932;10.884;2023-03-23T00:11:04;4.50;;;0.80;;
66721;SDS011;53633;49.932;10.884;2023-03-23T00:13:30;3.00;;;0.80;;
66721;SDS011;53633;49.932;10.884;2023-03-23T00:15:57;4.40;;;0.90;;
66721;SDS011;53633;49.932;10.884;2023-03-23T00:18:23;4.03;;;1.02;;
66721;SDS011;53633;49.932;10.884;2023-03-23T00:20:50;3.47;;;1.00;;
66721;SDS011;53633;49.932;10.884;2023-03-23T00:23:17;4.53;;;1.15;;
66721;SDS011;53633;49.932;10.884;2023-03-23T00:25:45;5.20;;;1.30;;
66721;SDS011;53633;49.932;10.884;2023-03-23T00:28:11;5.55;;;1.50;;
66721;SDS011;53633;49.932;10.884;2023-03-23T00:30:36;10.98;;;2.10;;
66721;SDS011;53633;49.932;10.884;2023-03-23T00:33:22;7.20;;;2.03;;
66721;SDS011;53633;49.932;10.884;2023-03-23T00:35:48;7.30;;;2.40;;
66721;SDS011;53633;49.932;10.884;2023-03-23T00:38:14;8.90;;;2.37;;
66721;SDS011;53633;49.932;10.884;2023-03-23T00:40:39;8.07;;;2.37;;
66721;SDS011;53633;49.932;10.884;2023-03-23T00:43:05;9.90;;;2.25;;
66721;SDS011;53633;49.932;10.884;2023-03-23T00:45:30;7.53;;;2.30;;
66721;SDS011;53633;49.932;10.884;2023-03-23T00:47:56;8.45;;;2.50;;
66721;SDS011;53633;49.932;10.884;2023-03-23T00:50:23;6.05;;;2.15;;
66721;SDS011;53633;49.932;10.884;2023-03-23T00:52:48;8.07;;;2.72;;
66721;SDS011;53633;49.932;10.884;2023-03-23T00:55:14;7.10;;;2.20;;
66721;SDS011;53633;49.932;10.884;2023-03-23T00:57:45;7.80;;;2.70;;
66721;SDS011;53633;49.932;10.884;2023-03-23T01:00:11;6.78;;;2.28;;
66721;SDS011;53633;49.932;10.884;2023-03-23T01:02:38;6.78;;;2.42;;
66721;SDS011;53633;49.932;10.884;2023-03-23T01:05:04;8.07;;;2.70;;
66721;SDS011;53633;49.932;10.884;2023-03-23T01:10:17;8.68;;;3.10;;
66721;SDS011;53633;49.932;10.884;2023-03-23T01:12:43;6.93;;;2.40;;
66721;SDS011;53633;49.932;10.884;2023-03-23T01:15:12;7.30;;;2.00;;
66721;SDS011;53633;49.932;10.884;2023-03-23T01:17:54;7.00;;;3.03;;
66721;SDS011;53633;49.932;10.884;2023-03-23T01:20:26;8.00;;;2.40;;
66721;SDS011;53633;49.932;10.884;2023-03-23T01:22:53;6.72;;;2.30;;
66721;SDS011;53633;49.932;10.884;2023-03-23T01:25:19;6.97;;;2.50;;
66721;SDS011;53633;49.932;10.884;2023-03-23T01:27:44;5.95;;;2.20;;
66721;SDS011;53633;49.932;10.884;2023-03-23T01:30:11;7.37;;;2.03;;
66721;SDS011;53633;49.932;10.884;2023-03-23T01:32:37;7.20;;;2.03;;
66721;SDS011;53633;49.932;10.884;2023-03-23T01:35:03;7.27;;;2.40;;
66721;SDS011;53633;49.932;10.884;2023-03-23T01:37:29;6.03;;;2.15;;
66721;SDS011;53633;49.932;10.884;2023-03-23T01:39:56;6.45;;;1.92;;
66721;SDS011;53633;49.932;10.884;2023-03-23T01:42:22;5.55;;;1.90;;
66721;SDS011;53633;49.932;10.884;2023-03-23T01:47:51;6.13;;;1.85;;
66721;SDS011;53633;49.932;10.884;2023-03-23T01:50:21;5.63;;;1.30;;
66721;SDS011;53633;49.932;10.884;2023-03-23T01:52:49;4.63;;;1.50;;
66721;SDS011;53633;49.932;10.884;2023-03-23T01:55:26;5.80;;;1.40;;
66721;SDS011;53633;49.932;10.884;2023-03-23T01:57:53;5.50;;;1.30;;
66721;SDS011;53633;49.932;10.884;2023-03-23T02:00:20;5.03;;;1.58;;
66721;SDS011;53633;49.932;10.884;2023-03-23T02:02:46;5.63;;;1.80;;
66721;SDS011;53633;49.932;10.884;2023-03-23T02:05:15;6.27;;;1.57;;
66721;SDS011;53633;49.932;10.884;2023-03-23T02:07:46;5.72;;;1.50;;
66721;SDS011;53633;49.932;10.884;2023-03-23T02:10:13;5.25;;;1.77;;
66721;SDS011;53633;49.932;10.884;2023-03-23T02:12:50;4.47;;;1.30;;
66721;SDS011;53633;49.932;10.884;2023-03-23T02:15:15;5.82;;;1.92;;
66721;SDS011;53633;49.932;10.884;2023-03-23T02:17:42;7.20;;;1.48;;
66721;SDS011;53633;49.932;10.884;2023-03-23T02:20:17;6.75;;;1.58;;
66721;SDS011;53633;49.932;10.884;2023-03-23T02:25:58;5.70;;;1.45;;
66721;SDS011;53633;49.932;10.884;2023-03-23T02:28:51;4.57;;;1.55;;
66721;SDS011;53633;49.932;10.884;2023-03-23T02:31:37;5.47;;;1.73;;
66721;SDS011;53633;49.932;10.884;2023-03-23T02:34:28;4.93;;;1.92;;
66721;SDS011;53633;49.932;10.884;2023-03-23T02:36:58;6.57;;;1.40;;
66721;SDS011;53633;49.932;10.884;2023-03-23T02:39:28;6.55;;;1.80;;
66721;SDS011;53633;49.932;10.884;2023-03-23T02:41:58;5.28;;;1.50;;
66721;SDS011;53633;49.932;10.884;2023-03-23T02:44:43;5.03;;;1.58;;
66721;SDS011;53633;49.932;10.884;2023-03-23T02:47:11;5.72;;;1.50;;
66721;SDS011;53633;49.932;10.884;2023-03-23T02:49:42;7.83;;;1.50;;
66721;SDS011;53633;49.932;10.884;2023-03-23T02:52:21;6.18;;;1.50;;
66721;SDS011;53633;49.932;10.884;2023-03-23T02:54:49;4.55;;;1.20;;
66721;SDS011;53633;49.932;10.884;2023-03-23T02:57:22;5.07;;;1.35;;
66721;SDS011;53633;49.932;10.884;2023-03-23T02:59:49;5.53;;;1.30;;
66721;SDS011;53633;49.932;10.884;2023-03-23T03:02:15;5.18;;;1.52;;
66721;SDS011;53633;49.932;10.884;2023-03-23T03:04:45;4.72;;;1.25;;
66721;SDS011;53633;49.932;10.884;2023-03-23T03:07:30;3.30;;;0.95;;
66721;SDS011;53633;49.932;10.884;2023-03-23T03:10:02;5.72;;;1.60;;
66721;SDS011;53633;49.932;10.884;2023-03-23T03:12:43;5.50;;;1.25;;
66721;SDS011;53633;49.932;10.884;2023-03-23T03:15:17;4.77;;;1.33;;
66721;SDS011;53633;49.932;10.884;2023-03-23T03:17:51;6.07;;;1.27;;
66721;SDS011;53633;49.932;10.884;2023-03-23T03:20:24;4.50;;;1.20;;
66721;SDS011;53633;49.932;10.884;2023-03-23T03:22:51;6.35;;;1.58;;
66721;SDS011;53633;49.932;10.884;2023-03-23T03:25:18;6.33;;;1.70;;
66721;SDS011;53633;49.932;10.884;2023-03-23T03:27:48;6.60;;;2.03;;
66721;SDS011;53633;49.932;10.884;2023-03-23T03:30:14;5.97;;;1.70;;
66721;SDS011;53633;49.932;10.884;2023-03-23T03:32:46;4.78;;;1.40;;
66721;SDS011;53633;49.932;10.884;2023-03-23T03:35:14;5.63;;;1.85;;
66721;SDS011;53633;49.932;10.884;2023-03-23T03:37:41;5.73;;;1.30;;
66721;SDS011;53633;49.932;10.884;2023-03-23T03:40:08;6.00;;;1.83;;
66721;SDS011;53633;49.932;10.884;2023-03-23T03:42:35;5.03;;;1.58;;
66721;SDS011;53633;49.932;10.884;2023-03-23T03:45:01;6.83;;;2.20;;
66721;SDS011;53633;49.932;10.884;2023-03-23T03:47:26;5.65;;;1.73;;
66721;SDS011;53633;49.932;10.884;2023-03-23T03:49:52;6.10;;;1.33;;
66721;SDS011;53633;49.932;10.884;2023-03-23T03:52:17;8.10;;;1.80;;
66721;SDS011;53633;49.932;10.884;2023-03-23T03:54:44;4.85;;;1.67;;
66721;SDS011;53633;49.932;10.884;2023-03-23T03:57:16;5.97;;;1.70;;
66721;SDS011;53633;49.932;10.884;2023-03-23T03:59:42;6.20;;;1.70;;
66721;SDS011;53633;49.932;10.884;2023-03-23T04:02:19;6.50;;;1.70;;
66721;SDS011;53633;49.932;10.884;2023-03-23T04:04:46;5.32;;;1.42;;
66721;SDS011;53633;49.932;10.884;2023-03-23T04:07:21;5.43;;;1.63;;
66721;SDS011;53633;49.932;10.884;2023-03-23T04:09:48;5.60;;;1.58;;
66721;SDS011;53633;49.932;10.884;2023-03-23T04:12:13;5.73;;;1.77;;
66721;SDS011;53633;49.932;10.884;2023-03-23T04:14:39;4.55;;;1.40;;
66721;SDS011;53633;49.932;10.884;2023-03-23T04:17:04;4.80;;;1.33;;
66721;SDS011;53633;49.932;10.884;2023-03-23T04:19:30;5.93;;;1.88;;
66721;SDS011;53633;49.932;10.884;2023-03-23T04:21:55;7.40;;;1.67;;
66721;SDS011;53633;49.932;10.884;2023-03-23T04:24:21;6.30;;;1.53;;
66721;SDS011;53633;49.932;10.884;2023-03-23T04:26:48;6.63;;;1.63;;
66721;SDS011;53633;49.932;10.884;2023-03-23T04:29:13;5.47;;;1.30;;
66721;SDS011;53633;49.932;10.884;2023-03-23T04:31:39;4.30;;;1.33;;
66721;SDS011;53633;49.932;10.884;2023-03-23T04:34:05;4.63;;;1.60;;
66721;SDS011;53633;49.932;10.884;2023-03-23T04:36:30;4.80;;;1.20;;
66721;SDS011;53633;49.932;10.884;2023-03-23T04:38:56;11.27;;;1.80;;
66721;SDS011;53633;49.932;10.884;2023-03-23T04:41:21;5.00;;;1.50;;
66721;SDS011;53633;49.932;10.884;2023-03-23T04:43:48;7.13;;;1.97;;
66721;SDS011;53633;49.932;10.884;2023-03-23T04:46:14;5.40;;;1.70;;
66721;SDS011;53633;49.932;10.884;2023-03-23T04:48:39;6.68;;;1.67;;
66721;SDS011;53633;49.932;10.884;2023-03-23T04:51:05;4.23;;;1.33;;
66721;SDS011;53633;49.932;10.884;2023-03-23T04:53:31;5.53;;;1.80;;
66721;SDS011;53633;49.932;10.884;2023-03-23T04:55:57;7.35;;;1.52;;
66721;SDS011;53633;49.932;10.884;2023-03-23T04:58:22;6.03;;;1.90;;
66721;SDS011;53633;49.932;10.884;2023-03-23T05:00:49;3.97;;;1.27;;
66721;SDS011;53633;49.932;10.884;2023-03-23T05:03:15;6.85;;;1.40;;
66721;SDS011;53633;49.932;10.884;2023-03-23T05:05:41;5.10;;;1.63;;
66721;SDS011;53633;49.932;10.884;2023-03-23T05:08:06;5.70;;;1.30;;
66721;SDS011;53633;49.932;10.884;2023-03-23T05:10:32;6.38;;;1.10;;
66721;SDS011;53633;49.932;10.884;2023-03-23T05:12:58;4.73;;;1.23;;
66721;SDS011;53633;49.932;10.884;2023-03-23T05:15:23;5.38;;;1.30;;
66721;SDS011;53633;49.932;10.884;2023-03-23T05:17:52;6.20;;;1.40;;
66721;SDS011;53633;49.932;10.884;2023-03-23T05:20:17;5.22;;;1.42;;
66721;SDS011;53633;49.932;10.884;2023-03-23T05:22:52;8.20;;;1.13;;
66721;SDS011;53633;49.932;10.884;2023-03-23T05:25:18;4.63;;;1.25;;
66721;SDS011;53633;49.932;10.884;2023-03-23T05:27:44;4.15;;;1.40;;
66721;SDS011;53633;49.932;10.884;2023-03-23T05:30:10;5.43;;;1.10;;
66721;SDS011;53633;49.932;10.884;2023-03-23T05:35:24;6.13;;;1.30;;
66721;SDS011;53633;49.932;10.884;2023-03-23T05:37:50;4.35;;;1.45;;
66721;SDS011;53633;49.932;10.884;2023-03-23T05:40:16;5.60;;;0.97;;
66721;SDS011;53633;49.932;10.884;2023-03-23T05:42:41;5.87;;;1.23;;
66721;SDS011;53633;49.932;10.884;2023-03-23T05:45:07;4.70;;;1.63;;
66721;SDS011;53633;49.932;10.884;2023-03-23T05:47:33;4.07;;;1.30;;
66721;SDS011;53633;49.932;10.884;2023-03-23T05:50:00;5.70;;;1.60;;
66721;SDS011;53633;49.932;10.884;2023-03-23T05:52:26;4.85;;;1.30;;
66721;SDS011;53633;49.932;10.884;2023-03-23T05:54:52;5.15;;;1.30;;
66721;SDS011;53633;49.932;10.884;2023-03-23T05:57:20;4.57;;;1.20;;
66721;SDS011;53633;49.932;10.884;2023-03-23T05:59:45;5.40;;;1.52;;
66721;SDS011;53633;49.932;10.884;2023-03-23T06:02:24;4.80;;;1.20;;
66721;SDS011;53633;49.932;10.884;2023-03-23T06:04:50;4.93;;;1.55;;
66721;SDS011;53633;49.932;10.884;2023-03-23T06:07:17;5.60;;;1.17;;
66721;SDS011;53633;49.932;10.884;2023-03-23T06:09:42;5.15;;;1.27;;
66721;SDS011;53633;49.932;10.884;2023-03-23T06:12:11;5.55;;;1.50;;
66721;SDS011;53633;49.932;10.884;2023-03-23T06:14:37;5.90;;;1.30;;
66721;SDS011;53633;49.932;10.884;2023-03-23T06:17:14;4.43;;;1.38;;
66721;SDS011;53633;49.932;10.884;2023-03-23T06:19:41;4.55;;;1.38;;
66721;SDS011;53633;49.932;10.884;2023-03-23T06:22:17;4.80;;;1.50;;
66721;SDS011;53633;49.932;10.884;2023-03-23T06:24:42;5.18;;;1.30;;
66721;SDS011;53633;49.932;10.884;2023-03-23T06:27:08;6.97;;;1.70;;
66721;SDS011;53633;49.932;10.884;2023-03-23T06:29:33;4.67;;;1.50;;
66721;SDS011;53633;49.932;10.884;2023-03-23T06:31:59;5.65;;;1.40;;
66721;SDS011;53633;49.932;10.884;2023-03-23T06:34:26;6.00;;;1.48;;
66721;SDS011;53633;49.932;10.884;2023-03-23T06:36:52;7.32;;;1.90;;
66721;SDS011;53633;49.932;10.884;2023-03-23T06:39:25;6.63;;;1.97;;
66721;SDS011;53633;49.932;10.884;2023-03-23T06:41:50;5.95;;;1.85;;
66721;SDS011;53633;49.932;10.884;2023-03-23T06:44:16;6.27;;;1.90;;
66721;SDS011;53633;49.932;10.884;2023-03-23T06:46:42;10.00;;;2.63;;
66721;SDS011;53633;49.932;10.884;2023-03-23T06:49:08;10.53;;;2.43;;
66721;SDS011;53633;49.932;10.884;2023-03-23T06:51:33;7.82;;;2.58;;
66721;SDS011;53633;49.932;10.884;2023-03-23T06:53:59;9.18;;;2.78;;
66721;SDS011;53633;49.932;10.884;2023-03-23T06:56:26;6.67;;;1.63;;
66721;SDS011;53633;49.932;10.884;2023-03-23T06:58:52;6.47;;;2.00;;
66721;SDS011;53633;49.932;10.884;2023-03-23T07:01:17;5.77;;;1.40;;
66721;SDS011;53633;49.932;10.884;2023-03-23T07:03:43;5.95;;;1.40;;
66721;SDS011;53633;49.932;10.884;2023-03-23T07:06:09;4.80;;;1.65;;
66721;SDS011;53633;49.932;10.884;2023-03-23T07:08:35;6.20;;;1.30;;
66721;SDS011;53633;49.932;10.884;2023-03-23T07:11:01;5.50;;;1.52;;
66721;SDS011;53633;49.932;10.884;2023-03-23T07:13:28;4.95;;;1.40;;
66721;SDS011;53633;49.932;10.884;2023-03-23T07:15:54;4.13;;;1.27;;
66721;SDS011;53633;49.932;10.884;2023-03-23T07:18:19;5.20;;;1.90;;
66721;SDS011;53633;49.932;10.884;2023-03-23T07:20:46;5.65;;;2.22;;
66721;SDS011;53633;49.932;10.884;2023-03-23T07:23:12;6.18;;;2.03;;
66721;SDS011;53633;49.932;10.884;2023-03-23T07:25:38;6.17;;;1.83;;
66721;SDS011;53633;49.932;10.884;2023-03-23T07:28:03;6.50;;;2.22;;
66721;SDS011;53633;49.932;10.884;2023-03-23T07:30:30;5.03;;;2.13;;
66721;SDS011;53633;49.932;10.884;2023-03-23T07:32:56;5.40;;;1.83;;
66721;SDS011;53633;49.932;10.884;2023-03-23T07:35:22;7.80;;;2.00;;
66721;SDS011;53633;49.932;10.884;2023-03-23T07:37:48;6.53;;;2.17;;
66721;SDS011;53633;49.932;10.884;2023-03-23T07:40:14;6.80;;;2.00;;
66721;SDS011;53633;49.932;10.884;2023-03-23T07:42:41;4.68;;;1.55;;
66721;SDS011;53633;49.932;10.884;2023-03-23T07:45:07;4.93;;;1.40;;
66721;SDS011;53633;49.932;10.884;2023-03-23T07:47:34;6.25;;;1.50;;
66721;SDS011;53633;49.932;10.884;2023-03-23T07:53:21;5.45;;;1.70;;
66721;SDS011;53633;49.932;10.884;2023-03-23T07:55:47;5.23;;;1.53;;
66721;SDS011;53633;49.932;10.884;2023-03-23T07:58:12;6.00;;;1.67;;
66721;SDS011;53633;49.932;10.884;2023-03-23T08:00:38;6.88;;;1.30;;
66721;SDS011;53633;49.932;10.884;2023-03-23T08:03:05;4.90;;;1.27;;
66721;SDS011;53633;49.932;10.884;2023-03-23T08:05:31;5.35;;;1.33;;
66721;SDS011;53633;49.932;10.884;2023-03-23T08:07:56;5.30;;;1.60;;
66721;SDS011;53633;49.932;10.884;2023-03-23T08:10:22;5.43;;;1.38;;
66721;SDS011;53633;49.932;10.884;2023-03-23T08:12:50;5.10;;;1.42;;
66721;SDS011;53633;49.932;10.884;2023-03-23T08:15:16;6.90;;;1.63;;
66721;SDS011;53633;49.932;10.884;2023-03-23T08:17:42;5.75;;;1.70;;
66721;SDS011;53633;49.932;10.884;2023-03-23T08:20:10;5.30;;;1.70;;
66721;SDS011;53633;49.932;10.884;2023-03-23T08:22:37;4.80;;;1.58;;
66721;SDS011;53633;49.932;10.884;2023-03-23T08:25:02;6.32;;;2.00;;
66721;SDS011;53633;49.932;10.884;2023-03-23T08:27:29;5.03;;;1.70;;
66721;SDS011;53633;49.932;10.884;2023-03-23T08:29:55;7.45;;;1.95;;
66721;SDS011;53633;49.932;10.884;2023-03-23T08:32:20;4.90;;;1.60;;
66721;SDS011;53633;49.932;10.884;2023-03-23T08:34:46;4.50;;;1.30;;
66721;SDS011;53633;49.932;10.884;2023-03-23T08:37:13;5.67;;;1.60;;
66721;SDS011;53633;49.932;10.884;2023-03-23T08:39:38;5.88;;;1.70;;
66721;SDS011;53633;49.932;10.884;2023-03-23T08:42:04;6.83;;;1.60;;
66721;SDS011;53633;49.932;10.884;2023-03-23T08:44:29;4.95;;;1.60;;
66721;SDS011;53633;49.932;10.884;2023-03-23T08:46:55;6.30;;;1.80;;
66721;SDS011;53633;49.932;10.884;2023-03-23T08:49:21;7.83;;;1.80;;
66721;SDS011;53633;49.932;10.884;2023-03-23T08:51:46;7.18;;;1.80;;
66721;SDS011;53633;49.932;10.884;2023-03-23T08:54:13;5.77;;;1.70;;
66721;SDS011;53633;49.932;10.884;2023-03-23T08:56:39;5.40;;;1.80;;
66721;SDS011;53633;49.932;10.884;2023-03-23T08:59:04;5.70;;;1.80;;
66721;SDS011;53633;49.932;10.884;2023-03-23T09:01:30;7.43;;;1.50;;
66721;SDS011;53633;49.932;10.884;2023-03-23T09:03:55;5.40;;;1.98;;
66721;SDS011;53633;49.932;10.884;2023-03-23T09:06:21;7.80;;;1.97;;
66721;SDS011;53633;49.932;10.884;2023-03-23T09:08:47;6.45;;;1.75;;
66721;SDS011;53633;49.932;10.884;2023-03-23T09:11:14;5.10;;;1.97;;
66721;SDS011;53633;49.932;10.884;2023-03-23T09:13:39;6.05;;;1.42;;
66721;SDS011;53633;49.932;10.884;2023-03-23T09:16:05;5.17;;;1.87;;
66721;SDS011;53633;49.932;10.884;2023-03-23T09:18:32;4.43;;;1.42;;
66721;SDS011;53633;49.932;10.884;2023-03-23T09:20:58;4.07;;;1.45;;
66721;SDS011;53633;49.932;10.884;2023-03-23T09:23:24;4.32;;;1.40;;
66721;SDS011;53633;49.932;10.884;2023-03-23T09:25:50;5.07;;;1.50;;
66721;SDS011;53633;49.932;10.884;2023-03-23T09:28:18;4.27;;;1.37;;
66721;SDS011;53633;49.932;10.884;2023-03-23T09:30:44;5.22;;;1.55;;
66721;SDS011;53633;49.932;10.884;2023-03-23T09:33:10;4.57;;;1.58;;
66721;SDS011;53633;49.932;10.884;2023-03-23T09:35:36;6.72;;;1.83;;
66721;SDS011;53633;49.932;10.884;2023-03-23T09:38:02;6.30;;;2.20;;
66721;SDS011;53633;49.932;10.884;2023-03-23T09:40:29;4.68;;;1.70;;
66721;SDS011;53633;49.932;10.884;2023-03-23T09:45:52;5.82;;;1.77;;
66721;SDS011;53633;49.932;10.884;2023-03-23T09:48:31;7.22;;;2.30;;
66721;SDS011;53633;49.932;10.884;2023-03-23T09:51:06;5.00;;;1.60;;
66721;SDS011;53633;49.932;10.884;2023-03-23T09:53:38;4.63;;;1.33;;
66721;SDS011;53633;49.932;10.884;2023-03-23T09:56:09;9.38;;;1.98;;
66721;SDS011;53633;49.932;10.884;2023-03-23T09:58:39;5.50;;;1.52;;
66721;SDS011;53633;49.932;10.884;2023-03-23T10:01:12;5.10;;;1.60;;
66721;SDS011;53633;49.932;10.884;2023-03-23T10:03:43;4.80;;;1.60;;
66721;SDS011;53633;49.932;10.884;2023-03-23T10:06:10;5.05;;;1.10;;
66721;SDS011;53633;49.932;10.884;2023-03-23T10:08:37;4.93;;;1.30;;
66721;SDS011;53633;49.932;10.884;2023-03-23T10:11:07;4.63;;;1.05;;
66721;SDS011;53633;49.932;10.884;2023-03-23T10:13:46;4.53;;;1.20;;
66721;SDS011;53633;49.932;10.884;2023-03-23T10:16:32;5.47;;;1.30;;
66721;SDS011;53633;49.932;10.884;2023-03-23T10:19:02;5.78;;;1.45;;
66721;SDS011;53633;49.932;10.884;2023-03-23T10:21:35;3.63;;;1.15;;
66721;SDS011;53633;49.932;10.884;2023-03-23T10:24:07;4.75;;;1.42;;
66721;SDS011;53633;49.932;10.884;2023-03-23T10:26:37;3.97;;;0.98;;
66721;SDS011;53633;49.932;10.884;2023-03-23T10:29:13;4.73;;;1.60;;
66721;SDS011;53633;49.932;10.884;2023-03-23T10:31:43;4.05;;;0.90;;
66721;SDS011;53633;49.932;10.884;2023-03-23T10:34:12;3.10;;;0.80;;
66721;SDS011;53633;49.932;10.884;2023-03-23T10:36:50;3.58;;;0.90;;
66721;SDS011;53633;49.932;10.884;2023-03-23T10:39:20;3.90;;;0.98;;
66721;SDS011;53633;49.932;10.884;2023-03-23T10:41:48;4.47;;;0.97;;
66721;SDS011;53633;49.932;10.884;2023-03-23T10:44:15;5.25;;;0.90;;
66721;SDS011;53633;49.932;10.884;2023-03-23T10:46:43;3.47;;;0.70;;
66721;SDS011;53633;49.932;10.884;2023-03-23T10:49:11;4.28;;;0.68;;
66721;SDS011;53633;49.932;10.884;2023-03-23T10:51:40;5.78;;;0.90;;
66721;SDS011;53633;49.932;10.884;2023-03-23T10:54:08;2.92;;;0.98;;
66721;SDS011;53633;49.932;10.884;2023-03-23T10:56:37;3.30;;;1.10;;
66721;SDS011;53633;49.932;10.884;2023-03-23T10:59:15;3.35;;;0.68;;
66721;SDS011;53633;49.932;10.884;2023-03-23T11:01:44;3.67;;;0.80;;
66721;SDS011;53633;49.932;10.884;2023-03-23T11:04:13;5.40;;;1.15;;
66721;SDS011;53633;49.932;10.884;2023-03-23T11:06:43;4.23;;;1.27;;
66721;SDS011;53633;49.932;10.884;2023-03-23T11:09:10;3.58;;;0.80;;
66721;SDS011;53633;49.932;10.884;2023-03-23T11:11:38;4.28;;;1.40;;
66721;SDS011;53633;49.932;10.884;2023-03-23T11:14:13;3.90;;;1.10;;
66721;SDS011;53633;49.932;10.884;2023-03-23T11:16:42;4.30;;;1.20;;
66721;SDS011;53633;49.932;10.884;2023-03-23T11:19:13;2.93;;;0.70;;
66721;SDS011;53633;49.932;10.884;2023-03-23T11:21:40;4.03;;;1.15;;
66721;SDS011;53633;49.932;10.884;2023-03-23T11:24:10;3.63;;;1.10;;
66721;SDS011;53633;49.932;10.884;2023-03-23T11:26:37;4.85;;;1.05;;
66721;SDS011;53633;49.932;10.884;2023-03-23T11:29:03;3.87;;;0.93;;
66721;SDS011;53633;49.932;10.884;2023-03-23T11:31:33;4.43;;;0.90;;
66721;SDS011;53633;49.932;10.884;2023-03-23T11:34:01;5.40;;;1.20;;
66721;SDS011;53633;49.932;10.884;2023-03-23T11:36:29;5.22;;;1.10;;
66721;SDS011;53633;49.932;10.884;2023-03-23T11:38:57;4.28;;;1.00;;
66721;SDS011;53633;49.932;10.884;2023-03-23T11:41:30;3.90;;;0.93;;
66721;SDS011;53633;49.932;10.884;2023-03-23T11:44:01;4.57;;;1.02;;
66721;SDS011;53633;49.932;10.884;2023-03-23T11:46:34;6.57;;;1.40;;
66721;SDS011;53633;49.932;10.884;2023-03-23T11:49:08;3.17;;;0.73;;
66721;SDS011;53633;49.932;10.884;2023-03-23T11:51:41;4.00;;;1.20;;
66721;SDS011;53633;49.932;10.884;2023-03-23T11:54:12;4.70;;;0.73;;
66721;SDS011;53633;49.932;10.884;2023-03-23T11:56:43;3.08;;;0.70;;
66721;SDS011;53633;49.932;10.884;2023-03-23T11:59:10;3.42;;;0.70;;
66721;SDS011;53633;49.932;10.884;2023-03-23T12:01:42;6.88;;;1.63;;
66721;SDS011;53633;49.932;10.884;2023-03-23T12:04:19;3.05;;;0.77;;
66721;SDS011;53633;49.932;10.884;2023-03-23T12:07:03;2.40;;;0.70;;
66721;SDS011;53633;49.932;10.884;2023-03-23T12:09:39;3.70;;;0.77;;
66721;SDS011;53633;49.932;10.884;2023-03-23T12:12:14;4.03;;;0.85;;
66721;SDS011;53633;49.932;10.884;2023-03-23T12:14:48;3.75;;;1.17;;
66721;SDS011;53633;49.932;10.884;2023-03-23T12:17:27;3.67;;;1.00;;
66721;SDS011;53633;49.932;10.884;2023-03-23T12:20:01;3.53;;;0.60;;
66721;SDS011;53633;49.932;10.884;2023-03-23T12:22:40;2.35;;;0.60;;
66721;SDS011;53633;49.932;10.884;2023-03-23T12:28:19;3.15;;;0.77;;
66721;SDS011;53633;49.932;10.884;2023-03-23T12:30:55;2.72;;;0.80;;
66721;SDS011;53633;49.932;10.884;2023-03-23T12:33:29;2.47;;;0.53;;
66721;SDS011;53633;49.932;10.884;2023-03-23T12:36:06;2.10;;;0.60;;
66721;SDS011;53633;49.932;10.884;2023-03-23T12:38:58;3.65;;;0.68;;
66721;SDS011;53633;49.932;10.884;2023-03-23T12:41:34;2.88;;;0.85;;
66721;SDS011;53633;49.932;10.884;2023-03-23T12:44:05;4.60;;;0.90;;
66721;SDS011;53633;49.932;10.884;2023-03-23T12:46:37;3.13;;;0.90;;
66721;SDS011;53633;49.932;10.884;2023-03-23T12:49:17;2.63;;;0.90;;
66721;SDS011;53633;49.932;10.884;2023-03-23T12:51:47;5.97;;;1.27;;
66721;SDS011;53633;49.932;10.884;2023-03-23T12:54:18;2.92;;;1.00;;
66721;SDS011;53633;49.932;10.884;2023-03-23T12:56:51;4.28;;;1.20;;
66721;SDS011;53633;49.932;10.884;2023-03-23T12:59:21;6.13;;;1.20;;
66721;SDS011;53633;49.932;10.884;2023-03-23T13:01:51;4.72;;;1.60;;
66721;SDS011;53633;49.932;10.884;2023-03-23T13:04:23;3.17;;;0.98;;
66721;SDS011;53633;49.932;10.884;2023-03-23T13:06:53;3.05;;;1.10;;
66721;SDS011;53633;49.932;10.884;2023-03-23T13:09:19;3.97;;;1.20;;
66721;SDS011;53633;49.932;10.884;2023-03-23T13:11:48;5.70;;;1.30;;
66721;SDS011;53633;49.932;10.884;2023-03-23T13:14:18;4.60;;;1.35;;
66721;SDS011;53633;49.932;10.884;2023-03-23T13:16:52;4.88;;;2.00;;
66721;SDS011;53633;49.932;10.884;2023-03-23T13:22:30;3.72;;;1.48;;
66721;SDS011;53633;49.932;10.884;2023-03-23T13:25:00;3.80;;;1.50;;
66721;SDS011;53633;49.932;10.884;2023-03-23T13:27:28;6.60;;;1.60;;
66721;SDS011;53633;49.932;10.884;2023-03-23T13:29:55;5.95;;;1.85;;
66721;SDS011;53633;49.932;10.884;2023-03-23T13:32:21;6.07;;;2.27;;
66721;SDS011;53633;49.932;10.884;2023-03-23T13:34:56;5.75;;;2.00;;
66721;SDS011;53633;49.932;10.884;2023-03-23T13:37:22;6.43;;;2.00;;
66721;SDS011;53633;49.932;10.884;2023-03-23T13:39:50;4.82;;;1.60;;
66721;SDS011;53633;49.932;10.884;2023-03-23T13:42:18;7.28;;;1.67;;
66721;SDS011;53633;49.932;10.884;2023-03-23T13:44:55;3.97;;;1.60;;
66721;SDS011;53633;49.932;10.884;2023-03-23T13:47:35;4.65;;;1.30;;
66721;SDS011;53633;49.932;10.884;2023-03-23T13:50:05;4.43;;;1.70;;
66721;SDS011;53633;49.932;10.884;2023-03-23T13:52:37;4.05;;;1.38;;
66721;SDS011;53633;49.932;10.884;2023-03-23T13:55:21;5.10;;;1.90;;
66721;SDS011;53633;49.932;10.884;2023-03-23T13:57:55;5.03;;;1.70;;
66721;SDS011;53633;49.932;10.884;2023-03-23T14:03:12;5.25;;;1.30;;
66721;SDS011;53633;49.932;10.884;2023-03-23T14:05:41;4.60;;;1.70;;
66721;SDS011;53633;49.932;10.884;2023-03-23T14:08:12;4.18;;;1.50;;
66721;SDS011;53633;49.932;10.884;2023-03-23T14:10:48;6.00;;;1.50;;
66721;SDS011;53633;49.932;10.884;2023-03-23T14:13:18;4.22;;;1.50;;
66721;SDS011;53633;49.932;10.884;2023-03-23T14:15:53;5.88;;;1.23;;
66721;SDS011;53633;49.932;10.884;2023-03-23T14:18:21;3.92;;;1.50;;
66721;SDS011;53633;49.932;10.884;2023-03-23T14:20:52;3.50;;;1.08;;
66721;SDS011;53633;49.932;10.884;2023-03-23T14:23:18;4.20;;;1.03;;
66721;SDS011;53633;49.932;10.884;2023-03-23T14:25:44;3.00;;;0.90;;
66721;SDS011;53633;49.932;10.884;2023-03-23T14:28:19;2.67;;;0.88;;
66721;SDS011;53633;49.932;10.884;2023-03-23T14:30:46;2.33;;;0.60;;
66721;SDS011;53633;49.932;10.884;2023-03-23T14:33:12;3.30;;;0.90;;
66721;SDS011;53633;49.932;10.884;2023-03-23T14:35:39;4.70;;;1.00;;
66721;SDS011;53633;49.932;10.884;2023-03-23T14:38:11;3.33;;;1.10;;
66721;SDS011;53633;49.932;10.884;2023-03-23T14:40:40;4.45;;;0.70;;
66721;SDS011;53633;49.932;10.884;2023-03-23T14:43:07;2.93;;;0.90;;
66721;SDS011;53633;49.932;10.884;2023-03-23T14:45:34;3.80;;;0.80;;
66721;SDS011;53633;49.932;10.884;2023-03-23T14:48:01;3.28;;;0.82;;
66721;SDS011;53633;49.932;10.884;2023-03-23T14:50:28;2.28;;;0.55;;
66721;SDS011;53633;49.932;10.884;2023-03-23T14:53:00;4.32;;;0.70;;
66721;SDS011;53633;49.932;10.884;2023-03-23T14:55:36;2.67;;;0.60;;
66721;SDS011;53633;49.932;10.884;2023-03-23T14:58:06;3.15;;;0.75;;
66721;SDS011;53633;49.932;10.884;2023-03-23T15:00:33;2.13;;;0.65;;
66721;SDS011;53633;49.932;10.884;2023-03-23T15:03:02;2.63;;;0.70;;
66721;SDS011;53633;49.932;10.884;2023-03-23T15:05:30;4.40;;;0.75;;
66721;SDS011;53633;49.932;10.884;2023-03-23T15:07:59;2.50;;;0.77;;
66721;SDS011;53633;49.932;10.884;2023-03-23T15:10:27;3.05;;;0.73;;